sensor_id;sensor_type;location;lat;lon;timestamp;pressure;altitude;pressure_sealevel;temperature;humidity
23679;BME280;12016;51.668;6.874;2022-09-12T00:02:03;101596.88;;;16.86;100.00
23679;BME280;12016;51.668;6.874;2022-09-12T00:08:05;101602.50;;;16.75;100.00
23679;BME280;12016;51.668;6.874;2022-09-12T00:14:09;101598.53;;;16.66;100.00
23679;BME280;12016;51.668;6.874;2022-09-12T00:20:11;101594.50;;;16.63;100.00
23679;BME280;12016;51.668;6.874;2022-09-12T00:26:14;101590.50;;;16.68;100.00
23679;BME280;12016;51.668;6.874;2022-09-12T00:32:16;101584.13;;;16.60;100.00
23679;BME280;12016;51.668;6.874;2022-09-12T00:38:18;101581.75;;;16.62;100.00
23679;BME280;12016;51.668;6.874;2022-09-12T00:50:23;101563.38;;;16.54;100.00
23679;BME280;12016;51.668;6.874;2022-09-12T00:56:26;101563.34;;;16.44;100.00
23679;BME280;12016;51.668;6.874;2022-09-12T01:02:28;101563.34;;;16.40;100.00
23679;BME280;12016;51.668;6.874;2022-09-12T01:08:32;101561.75;;;16.36;100.00
23679;BME280;12016;51.668;6.874;2022-09-12T01:14:35;101563.34;;;16.29;100.00
23679;BME280;12016;51.668;6.874;2022-09-12T01:20:45;101548.97;;;16.27;100.00
23679;BME280;12016;51.668;6.874;2022-09-12T01:33:11;101546.59;;;16.08;100.00
23679;BME280;12016;51.668;6.874;2022-09-12T01:45:40;101538.56;;;15.93;100.00
23679;BME280;12016;51.668;6.874;2022-09-12T01:51:55;101538.16;;;15.94;100.00
23679;BME280;12016;51.668;6.874;2022-09-12T01:58:08;101521.00;;;15.82;100.00
23679;BME280;12016;51.668;6.874;2022-09-12T02:04:22;101511.41;;;15.83;100.00
23679;BME280;12016;51.668;6.874;2022-09-12T02:10:35;101497.09;;;15.81;100.00
23679;BME280;12016;51.668;6.874;2022-09-12T02:16:45;101502.66;;;15.77;100.00
23679;BME280;12016;51.668;6.874;2022-09-12T02:22:51;101496.25;;;15.66;100.00
23679;BME280;12016;51.668;6.874;2022-09-12T02:28:55;101506.22;;;15.60;100.00
23679;BME280;12016;51.668;6.874;2022-09-12T02:35:05;101512.16;;;15.52;100.00
23679;BME280;12016;51.668;6.874;2022-09-12T02:41:09;101502.63;;;15.56;100.00
23679;BME280;12016;51.668;6.874;2022-09-12T02:47:17;101495.44;;;15.59;100.00
23679;BME280;12016;51.668;6.874;2022-09-12T02:53:21;101487.44;;;15.54;100.00
23679;BME280;12016;51.668;6.874;2022-09-12T02:59:23;101489.06;;;15.55;100.00
23679;BME280;12016;51.668;6.874;2022-09-12T03:05:34;101489.03;;;15.48;100.00
23679;BME280;12016;51.668;6.874;2022-09-12T03:30:55;101488.88;;;15.13;100.00
23679;BME280;12016;51.668;6.874;2022-09-12T03:36:57;101465.00;;;15.15;100.00
23679;BME280;12016;51.668;6.874;2022-09-12T03:43:00;101480.94;;;15.15;100.00
23679;BME280;12016;51.668;6.874;2022-09-12T03:49:01;101486.91;;;15.17;100.00
23679;BME280;12016;51.668;6.874;2022-09-12T03:55:03;101476.94;;;15.09;100.00
23679;BME280;12016;51.668;6.874;2022-09-12T04:01:10;101478.50;;;15.06;100.00
23679;BME280;12016;51.668;6.874;2022-09-12T04:07:14;101472.50;;;14.97;100.00
23679;BME280;12016;51.668;6.874;2022-09-12T04:13:16;101470.88;;;14.96;100.00
23679;BME280;12016;51.668;6.874;2022-09-12T04:19:17;101466.06;;;14.89;100.00
23679;BME280;12016;51.668;6.874;2022-09-12T04:25:19;101461.72;;;14.92;100.00
23679;BME280;12016;51.668;6.874;2022-09-12T04:31:22;101456.94;;;14.89;100.00
23679;BME280;12016;51.668;6.874;2022-09-12T04:37:24;101455.34;;;14.91;100.00
23679;BME280;12016;51.668;6.874;2022-09-12T04:43:26;101458.09;;;14.88;100.00
23679;BME280;12016;51.668;6.874;2022-09-12T04:49:28;101448.19;;;14.90;100.00
23679;BME280;12016;51.668;6.874;2022-09-12T04:55:33;101453.75;;;14.90;100.00
23679;BME280;12016;51.668;6.874;2022-09-12T05:01:35;101445.81;;;14.92;100.00
23679;BME280;12016;51.668;6.874;2022-09-12T05:07:37;101445.81;;;14.92;100.00
23679;BME280;12016;51.668;6.874;2022-09-12T05:13:39;101441.03;;;15.00;100.00
23679;BME280;12016;51.668;6.874;2022-09-12T05:19:41;101427.09;;;15.00;100.00
23679;BME280;12016;51.668;6.874;2022-09-12T05:25:49;101429.94;;;15.11;100.00
23679;BME280;12016;51.668;6.874;2022-09-12T05:31:52;101431.16;;;15.20;100.00
23679;BME280;12016;51.668;6.874;2022-09-12T05:37:54;101440.75;;;15.40;100.00
23679;BME280;12016;51.668;6.874;2022-09-12T05:43:58;101436.00;;;15.58;100.00
23679;BME280;12016;51.668;6.874;2022-09-12T05:50:00;101448.41;;;15.68;100.00
23679;BME280;12016;51.668;6.874;2022-09-12T05:56:03;101450.00;;;15.83;100.00
23679;BME280;12016;51.668;6.874;2022-09-12T06:02:07;101458.75;;;15.99;100.00
23679;BME280;12016;51.668;6.874;2022-09-12T06:08:10;101457.97;;;16.16;100.00
23679;BME280;12016;51.668;6.874;2022-09-12T06:14:15;101456.34;;;16.36;100.00
23679;BME280;12016;51.668;6.874;2022-09-12T06:20:18;101470.31;;;16.50;100.00
23679;BME280;12016;51.668;6.874;2022-09-12T06:26:21;101461.50;;;16.66;100.00
23679;BME280;12016;51.668;6.874;2022-09-12T06:32:25;101461.03;;;16.81;100.00
23679;BME280;12016;51.668;6.874;2022-09-12T06:38:30;101460.97;;;16.99;100.00
23679;BME280;12016;51.668;6.874;2022-09-12T06:44:32;101466.47;;;17.16;100.00
23679;BME280;12016;51.668;6.874;2022-09-12T06:50:33;101467.16;;;17.38;100.00
23679;BME280;12016;51.668;6.874;2022-09-12T06:56:36;101465.53;;;17.47;100.00
23679;BME280;12016;51.668;6.874;2022-09-12T07:02:38;101461.47;;;17.59;100.00
23679;BME280;12016;51.668;6.874;2022-09-12T07:08:40;101457.34;;;17.78;100.00
23679;BME280;12016;51.668;6.874;2022-09-12T07:14:42;101459.59;;;17.93;100.00
23679;BME280;12016;51.668;6.874;2022-09-12T07:20:44;101452.25;;;18.10;100.00
23679;BME280;12016;51.668;6.874;2022-09-12T07:26:46;101448.16;;;18.18;100.00
23679;BME280;12016;51.668;6.874;2022-09-12T07:32:52;101460.50;;;18.27;100.00
23679;BME280;12016;51.668;6.874;2022-09-12T07:38:55;101449.50;;;18.47;100.00
23679;BME280;12016;51.668;6.874;2022-09-12T07:44:57;101439.78;;;18.58;100.00
23679;BME280;12016;51.668;6.874;2022-09-12T07:51:02;101443.59;;;18.75;100.00
23679;BME280;12016;51.668;6.874;2022-09-12T07:57:04;101455.81;;;18.91;100.00
23679;BME280;12016;51.668;6.874;2022-09-12T08:03:08;101456.00;;;19.08;100.00
23679;BME280;12016;51.668;6.874;2022-09-12T08:09:10;101451.00;;;19.22;100.00
23679;BME280;12016;51.668;6.874;2022-09-12T08:15:13;101462.97;;;19.30;100.00
23679;BME280;12016;51.668;6.874;2022-09-12T08:21:21;101454.84;;;19.35;100.00
23679;BME280;12016;51.668;6.874;2022-09-12T08:27:23;101451.63;;;19.63;100.00
23679;BME280;12016;51.668;6.874;2022-09-12T08:33:25;101443.34;;;19.79;100.00
23679;BME280;12016;51.668;6.874;2022-09-12T08:39:33;101435.34;;;19.78;100.00
23679;BME280;12016;51.668;6.874;2022-09-12T08:45:45;101431.50;;;19.91;100.00
23679;BME280;12016;51.668;6.874;2022-09-12T08:51:51;101436.81;;;20.09;100.00
23679;BME280;12016;51.668;6.874;2022-09-12T08:57:53;101437.56;;;20.13;100.00
23679;BME280;12016;51.668;6.874;2022-09-12T09:16:48;101412.00;;;20.89;100.00
23679;BME280;12016;51.668;6.874;2022-09-12T09:29:23;101399.00;;;21.31;100.00
23679;BME280;12016;51.668;6.874;2022-09-12T09:35:44;101383.03;;;21.60;100.00
23679;BME280;12016;51.668;6.874;2022-09-12T09:48:17;101358.47;;;22.21;100.00
23679;BME280;12016;51.668;6.874;2022-09-12T10:00:47;101346.34;;;22.65;100.00
23679;BME280;12016;51.668;6.874;2022-09-12T10:06:55;101339.41;;;23.08;100.00
23679;BME280;12016;51.668;6.874;2022-09-12T10:13:12;101321.66;;;23.20;100.00
23679;BME280;12016;51.668;6.874;2022-09-12T10:19:33;101320.84;;;23.57;100.00
23679;BME280;12016;51.668;6.874;2022-09-12T10:25:35;101309.50;;;23.82;100.00
23679;BME280;12016;51.668;6.874;2022-09-12T10:31:45;101289.81;;;24.13;100.00
23679;BME280;12016;51.668;6.874;2022-09-12T10:37:59;101288.75;;;24.41;100.00
23679;BME280;12016;51.668;6.874;2022-09-12T10:44:07;101273.94;;;25.28;100.00
23679;BME280;12016;51.668;6.874;2022-09-12T10:50:26;101268.47;;;28.06;100.00
23679;BME280;12016;51.668;6.874;2022-09-12T10:56:35;101245.84;;;33.46;75.59
23679;BME280;12016;51.668;6.874;2022-09-12T11:02:49;101235.69;;;36.30;62.73
23679;BME280;12016;51.668;6.874;2022-09-12T11:09:08;101238.84;;;37.08;52.50
23679;BME280;12016;51.668;6.874;2022-09-12T11:34:09;101216.34;;;40.00;41.74
23679;BME280;12016;51.668;6.874;2022-09-12T11:52:36;101204.50;;;39.55;38.97
23679;BME280;12016;51.668;6.874;2022-09-12T11:58:41;101200.78;;;44.02;33.03
23679;BME280;12016;51.668;6.874;2022-09-12T12:05:18;101207.75;;;41.21;32.20
23679;BME280;12016;51.668;6.874;2022-09-12T12:11:34;101195.69;;;42.26;31.08
23679;BME280;12016;51.668;6.874;2022-09-12T12:17:37;101182.38;;;40.46;35.80
23679;BME280;12016;51.668;6.874;2022-09-12T12:23:40;101187.56;;;41.30;32.27
23679;BME280;12016;51.668;6.874;2022-09-12T12:30:02;101171.16;;;40.58;32.53
23679;BME280;12016;51.668;6.874;2022-09-12T12:48:45;101143.53;;;46.24;26.64
23679;BME280;12016;51.668;6.874;2022-09-12T12:54:50;101139.31;;;47.09;26.35
23679;BME280;12016;51.668;6.874;2022-09-12T13:01:10;101131.16;;;42.13;28.96
23679;BME280;12016;51.668;6.874;2022-09-12T13:07:23;101131.25;;;38.63;35.48
23679;BME280;12016;51.668;6.874;2022-09-12T13:13:32;101130.03;;;35.39;35.96
23679;BME280;12016;51.668;6.874;2022-09-12T13:19:36;101126.25;;;32.30;45.41
23679;BME280;12016;51.668;6.874;2022-09-12T13:25:38;101111.31;;;31.60;48.91
23679;BME280;12016;51.668;6.874;2022-09-12T13:31:41;101113.47;;;30.70;50.97
23679;BME280;12016;51.668;6.874;2022-09-12T13:38:08;101104.94;;;30.75;54.41
23679;BME280;12016;51.668;6.874;2022-09-12T13:44:15;101101.75;;;30.00;59.04
23679;BME280;12016;51.668;6.874;2022-09-12T14:06:18;101081.91;;;28.59;64.65
23679;BME280;12016;51.668;6.874;2022-09-12T14:12:24;101068.78;;;28.33;64.49
23679;BME280;12016;51.668;6.874;2022-09-12T14:18:29;101071.22;;;27.90;66.01
23679;BME280;12016;51.668;6.874;2022-09-12T14:24:34;101057.94;;;28.02;63.71
23679;BME280;12016;51.668;6.874;2022-09-12T14:30:36;101049.38;;;27.87;63.62
23679;BME280;12016;51.668;6.874;2022-09-12T14:36:50;101041.84;;;27.84;64.18
23679;BME280;12016;51.668;6.874;2022-09-12T14:42:56;101044.03;;;27.89;64.51
23679;BME280;12016;51.668;6.874;2022-09-12T14:49:22;101023.28;;;28.04;65.42
23679;BME280;12016;51.668;6.874;2022-09-12T14:55:29;101022.34;;;28.27;62.97
23679;BME280;12016;51.668;6.874;2022-09-12T15:01:33;101022.63;;;28.29;62.59
23679;BME280;12016;51.668;6.874;2022-09-12T15:08:00;101011.66;;;28.22;66.05
23679;BME280;12016;51.668;6.874;2022-09-12T15:14:11;100996.88;;;27.88;65.56
23679;BME280;12016;51.668;6.874;2022-09-12T15:20:14;100996.41;;;27.75;67.44
23679;BME280;12016;51.668;6.874;2022-09-12T15:26:27;101000.91;;;27.82;69.69
23679;BME280;12016;51.668;6.874;2022-09-12T15:32:32;100996.41;;;27.75;65.18
23679;BME280;12016;51.668;6.874;2022-09-12T15:38:34;100996.00;;;27.82;65.85
23679;BME280;12016;51.668;6.874;2022-09-12T15:44:36;100998.19;;;27.58;67.41
23679;BME280;12016;51.668;6.874;2022-09-12T15:50:40;100989.75;;;27.78;68.07
23679;BME280;12016;51.668;6.874;2022-09-12T15:56:43;100970.72;;;27.70;69.13
23679;BME280;12016;51.668;6.874;2022-09-12T16:02:46;100965.22;;;27.52;68.81
23679;BME280;12016;51.668;6.874;2022-09-12T16:08:49;100950.72;;;27.50;70.88
23679;BME280;12016;51.668;6.874;2022-09-12T16:14:51;100945.22;;;27.46;72.14
23679;BME280;12016;51.668;6.874;2022-09-12T16:20:54;100943.63;;;27.60;70.88
23679;BME280;12016;51.668;6.874;2022-09-12T16:26:56;100928.75;;;27.50;68.65
23679;BME280;12016;51.668;6.874;2022-09-12T16:33:01;100932.28;;;27.31;68.80
23679;BME280;12016;51.668;6.874;2022-09-12T16:39:03;100934.63;;;27.18;70.37
23679;BME280;12016;51.668;6.874;2022-09-12T16:45:06;100927.97;;;27.35;73.27
23679;BME280;12016;51.668;6.874;2022-09-12T16:51:07;100923.84;;;27.36;75.18
23679;BME280;12016;51.668;6.874;2022-09-12T16:57:10;100914.22;;;27.19;75.24
23679;BME280;12016;51.668;6.874;2022-09-12T17:03:12;100905.59;;;27.28;77.83
23679;BME280;12016;51.668;6.874;2022-09-12T17:09:14;100896.97;;;27.08;76.88
23679;BME280;12016;51.668;6.874;2022-09-12T17:15:19;100897.72;;;26.80;78.86
23679;BME280;12016;51.668;6.874;2022-09-12T17:21:21;100896.72;;;26.68;80.34
23679;BME280;12016;51.668;6.874;2022-09-12T17:27:23;100891.59;;;26.57;81.63
23679;BME280;12016;51.668;6.874;2022-09-12T17:33:26;100887.94;;;26.42;83.46
23679;BME280;12016;51.668;6.874;2022-09-12T17:39:29;100906.56;;;26.20;86.41
23679;BME280;12016;51.668;6.874;2022-09-12T17:45:31;100893.13;;;25.97;89.90
23679;BME280;12016;51.668;6.874;2022-09-12T17:51:34;100896.41;;;25.72;92.59
23679;BME280;12016;51.668;6.874;2022-09-12T17:57:35;100891.94;;;25.56;94.78
23679;BME280;12016;51.668;6.874;2022-09-12T18:03:37;100881.47;;;25.38;100.00
23679;BME280;12016;51.668;6.874;2022-09-12T18:09:39;100887.44;;;25.22;100.00
23679;BME280;12016;51.668;6.874;2022-09-12T18:15:41;100897.25;;;25.03;100.00
23679;BME280;12016;51.668;6.874;2022-09-12T18:21:44;100903.44;;;24.84;100.00
23679;BME280;12016;51.668;6.874;2022-09-12T18:27:46;100890.41;;;24.68;100.00
23679;BME280;12016;51.668;6.874;2022-09-12T18:33:48;100891.78;;;24.55;100.00
23679;BME280;12016;51.668;6.874;2022-09-12T18:39:50;100899.19;;;24.34;100.00
23679;BME280;12016;51.668;6.874;2022-09-12T18:45:51;100879.03;;;24.14;100.00
23679;BME280;12016;51.668;6.874;2022-09-12T18:51:53;100874.31;;;24.02;100.00
23679;BME280;12016;51.668;6.874;2022-09-12T18:57:55;100872.00;;;23.70;100.00
23679;BME280;12016;51.668;6.874;2022-09-12T19:04:00;100876.44;;;23.80;100.00
23679;BME280;12016;51.668;6.874;2022-09-12T19:10:05;100869.03;;;23.73;100.00
23679;BME280;12016;51.668;6.874;2022-09-12T19:16:09;100882.53;;;23.69;100.00
23679;BME280;12016;51.668;6.874;2022-09-12T19:22:12;100870.88;;;23.58;100.00
23679;BME280;12016;51.668;6.874;2022-09-12T19:28:14;100884.81;;;23.53;100.00
23679;BME280;12016;51.668;6.874;2022-09-12T19:34:19;100886.06;;;23.43;100.00
23679;BME280;12016;51.668;6.874;2022-09-12T19:40:21;100883.31;;;23.30;100.00
23679;BME280;12016;51.668;6.874;2022-09-12T19:46:27;100883.84;;;23.16;100.00
23679;BME280;12016;51.668;6.874;2022-09-12T19:52:29;100893.38;;;23.10;100.00
23679;BME280;12016;51.668;6.874;2022-09-12T19:58:35;100889.53;;;22.95;100.00
23679;BME280;12016;51.668;6.874;2022-09-12T20:04:37;100895.44;;;22.88;100.00
23679;BME280;12016;51.668;6.874;2022-09-12T20:10:40;100886.91;;;22.78;100.00
23679;BME280;12016;51.668;6.874;2022-09-12T20:16:42;100879.97;;;22.70;100.00
23679;BME280;12016;51.668;6.874;2022-09-12T20:22:49;100879.41;;;22.63;100.00
23679;BME280;12016;51.668;6.874;2022-09-12T20:28:52;100863.38;;;22.38;100.00
23679;BME280;12016;51.668;6.874;2022-09-12T20:34:54;100844.34;;;22.30;100.00
23679;BME280;12016;51.668;6.874;2022-09-12T20:40:57;100853.59;;;21.96;100.00
23679;BME280;12016;51.668;6.874;2022-09-12T20:46:59;100835.78;;;21.99;100.00
23679;BME280;12016;51.668;6.874;2022-09-12T20:53:01;100839.50;;;21.96;100.00
23679;BME280;12016;51.668;6.874;2022-09-12T20:59:11;100826.06;;;22.00;100.00
23679;BME280;12016;51.668;6.874;2022-09-12T21:05:13;100820.09;;;21.98;100.00
23679;BME280;12016;51.668;6.874;2022-09-12T21:11:16;100812.31;;;21.90;100.00
23679;BME280;12016;51.668;6.874;2022-09-12T21:17:17;100815.28;;;21.86;100.00
23679;BME280;12016;51.668;6.874;2022-09-12T21:23:20;100806.63;;;21.81;100.00
23679;BME280;12016;51.668;6.874;2022-09-12T21:29:23;100812.78;;;21.76;100.00
23679;BME280;12016;51.668;6.874;2022-09-12T21:35:24;100816.19;;;21.71;100.00
23679;BME280;12016;51.668;6.874;2022-09-12T21:41:26;100827.50;;;21.58;100.00
23679;BME280;12016;51.668;6.874;2022-09-12T21:47:29;100820.63;;;21.46;100.00
23679;BME280;12016;51.668;6.874;2022-09-12T21:53:31;100818.84;;;21.40;100.00
23679;BME280;12016;51.668;6.874;2022-09-12T21:59:33;100823.13;;;21.32;100.00
23679;BME280;12016;51.668;6.874;2022-09-12T22:05:39;100845.31;;;21.30;100.00
23679;BME280;12016;51.668;6.874;2022-09-12T22:11:40;100846.22;;;21.27;100.00
23679;BME280;12016;51.668;6.874;2022-09-12T22:17:48;100855.91;;;21.26;100.00
23679;BME280;12016;51.668;6.874;2022-09-12T22:24:04;100845.09;;;21.12;100.00
23679;BME280;12016;51.668;6.874;2022-09-12T22:30:46;100850.63;;;21.03;100.00
23679;BME280;12016;51.668;6.874;2022-09-12T22:36:52;100836.72;;;20.96;100.00
23679;BME280;12016;51.668;6.874;2022-09-12T22:42:53;100843.16;;;20.96;100.00
23679;BME280;12016;51.668;6.874;2022-09-12T22:48:55;100844.63;;;21.01;100.00
23679;BME280;12016;51.668;6.874;2022-09-12T22:54:57;100856.06;;;20.94;100.00
23679;BME280;12016;51.668;6.874;2022-09-12T23:00:59;100855.19;;;20.97;100.00
23679;BME280;12016;51.668;6.874;2022-09-12T23:07:01;100851.47;;;21.00;100.00
23679;BME280;12016;51.668;6.874;2022-09-12T23:13:05;100845.81;;;20.87;100.00
23679;BME280;12016;51.668;6.874;2022-09-12T23:19:07;100813.84;;;20.81;100.00
23679;BME280;12016;51.668;6.874;2022-09-12T23:25:08;100806.75;;;20.77;100.00
23679;BME280;12016;51.668;6.874;2022-09-12T23:31:10;100794.25;;;20.90;100.00
23679;BME280;12016;51.668;6.874;2022-09-12T23:37:12;100805.31;;;21.10;100.00
23679;BME280;12016;51.668;6.874;2022-09-12T23:43:15;100793.28;;;21.22;100.00
23679;BME280;12016;51.668;6.874;2022-09-12T23:49:17;100785.28;;;21.08;100.00
23679;BME280;12016;51.668;6.874;2022-09-12T23:55:18;100791.94;;;21.14;100.00
